Time;durP1;ratioP1;P1;durP2;ratioP2;P2;SDS_P1;SDS_P2;PMS_P1;PMS_P2;Temp;Humidity;BMP_temperature;BMP_pressure;BME280_temperature;BME280_humidity;BME280_pressure;Samples;Min_cycle;Max_cycle;Signal;HPM_P1;HPM_P2
2021/05/20 00:01:48;;;;;;;10.00;9.00;;;9.90;99.90;;;;;;5070710;28;20172;-90
2021/05/20 00:04:14;;;;;;;8.65;7.28;;;10.00;99.90;;;;;;5076176;28;20219;-90
2021/05/20 00:06:39;;;;;;;9.27;6.88;;;9.90;99.90;;;;;;5065952;28;20190;-90
2021/05/20 00:09:06;;;;;;;13.05;7.20;;;10.00;99.90;;;;;;5055342;28;20183;-89
2021/05/20 00:11:32;;;;;;;8.95;8.15;;;10.00;99.90;;;;;;5056225;28;20696;-89
2021/05/20 00:13:59;;;;;;;10.88;7.50;;;9.90;99.90;;;;;;5056197;28;20163;-90
2021/05/20 00:16:24;;;;;;;7.60;6.88;;;10.00;99.90;;;;;;5056658;28;20182;-90
2021/05/20 00:18:50;;;;;;;9.45;8.15;;;9.90;99.90;;;;;;5054127;28;20175;-89
2021/05/20 00:21:16;;;;;;;9.05;8.15;;;9.80;99.90;;;;;;5054273;28;20164;-90
2021/05/20 00:23:41;;;;;;;17.92;10.25;;;9.90;99.90;;;;;;5054209;28;20176;-90
2021/05/20 00:26:12;;;;;;;11.43;8.45;;;9.90;99.90;;;;;;5054019;28;20175;-90
2021/05/20 00:28:38;;;;;;;15.90;9.60;;;9.80;99.90;;;;;;5054034;28;20199;-90
2021/05/20 00:31:04;;;;;;;9.77;8.18;;;9.70;99.90;;;;;;5055076;28;20647;-90
2021/05/20 00:33:29;;;;;;;9.82;8.82;;;9.60;99.90;;;;;;5055241;28;20171;-89
2021/05/20 00:35:55;;;;;;;10.32;8.80;;;9.50;99.90;;;;;;5054460;28;20184;-89
2021/05/20 00:38:21;;;;;;;16.40;9.45;;;9.60;99.90;;;;;;5054108;28;20171;-90
2021/05/20 00:40:46;;;;;;;17.77;10.70;;;9.60;99.90;;;;;;5054226;28;20175;-90
2021/05/20 00:43:12;;;;;;;15.07;10.52;;;9.70;99.90;;;;;;5054971;28;20167;-90
2021/05/20 00:45:38;;;;;;;12.55;10.70;;;9.60;99.90;;;;;;5054839;28;20191;-89
2021/05/20 00:48:04;;;;;;;11.55;10.00;;;9.50;99.90;;;;;;5053575;28;20202;-90
2021/05/20 00:50:29;;;;;;;12.65;9.80;;;9.50;99.90;;;;;;5053784;28;20175;-90
2021/05/20 00:52:55;;;;;;;15.35;10.27;;;9.30;99.90;;;;;;5053796;28;20175;-90
2021/05/20 00:55:23;;;;;;;13.32;10.75;;;9.30;99.90;;;;;;5054174;28;20209;-90
2021/05/20 00:57:50;;;;;;;12.68;9.50;;;9.20;99.90;;;;;;5053556;28;20187;-90
2021/05/20 01:00:18;;;;;;;15.27;10.13;;;9.30;99.90;;;;;;5037141;28;20262;-89
2021/05/20 01:02:43;;;;;;;13.02;10.68;;;9.30;99.90;;;;;;5053296;28;20163;-89
2021/05/20 01:05:14;;;;;;;11.30;10.15;;;9.20;99.90;;;;;;5054354;28;20171;-90
2021/05/20 01:07:41;;;;;;;12.70;10.55;;;9.20;99.90;;;;;;5054530;28;20191;-90
2021/05/20 01:10:08;;;;;;;17.98;10.02;;;9.20;99.90;;;;;;5053399;28;20274;-90
2021/05/20 01:12:34;;;;;;;12.85;9.73;;;9.20;99.90;;;;;;5053677;28;20167;-90
2021/05/20 01:15:00;;;;;;;17.15;9.45;;;9.30;99.90;;;;;;5053360;28;20171;-90
2021/05/20 01:17:27;;;;;;;13.15;10.27;;;9.30;99.90;;;;;;5053396;28;20206;-90
2021/05/20 01:19:53;;;;;;;13.30;9.57;;;9.20;99.90;;;;;;5053701;28;20170;-90
2021/05/20 01:22:19;;;;;;;10.80;8.50;;;9.20;99.90;;;;;;5053541;28;20171;-90
2021/05/20 01:24:46;;;;;;;11.30;8.80;;;9.10;99.90;;;;;;5053419;28;20171;-90
2021/05/20 01:27:13;;;;;;;10.77;9.65;;;9.00;99.90;;;;;;5053567;28;20241;-90
2021/05/20 01:29:41;;;;;;;11.65;8.30;;;9.00;99.90;;;;;;5053029;28;20183;-90
2021/05/20 01:32:07;;;;;;;11.18;10.02;;;9.00;99.90;;;;;;5052980;28;20209;-90
2021/05/20 01:34:34;;;;;;;14.88;8.40;;;9.00;99.90;;;;;;5053291;28;20623;-90
2021/05/20 01:37:01;;;;;;;9.27;8.48;;;9.10;99.90;;;;;;5053279;28;20174;-90
2021/05/20 01:39:27;;;;;;;18.92;8.93;;;9.10;99.90;;;;;;5053210;28;20179;-90
2021/05/20 01:41:52;;;;;;;8.88;8.10;;;9.00;99.90;;;;;;5036923;28;20191;-91
2021/05/20 01:44:20;;;;;;;10.13;8.98;;;9.10;99.90;;;;;;5053299;28;20179;-90
2021/05/20 01:46:46;;;;;;;14.52;10.07;;;9.10;99.90;;;;;;5054056;28;20179;-90
2021/05/20 01:49:14;;;;;;;10.02;8.10;;;9.00;99.90;;;;;;5052906;28;20198;-90
2021/05/20 01:51:41;;;;;;;9.60;7.88;;;9.00;99.90;;;;;;5052940;28;20168;-90
2021/05/20 01:54:07;;;;;;;7.88;7.18;;;8.90;99.90;;;;;;5054050;28;20242;-90
2021/05/20 01:56:36;;;;;;;12.30;8.68;;;8.90;99.90;;;;;;5052819;28;20274;-89
2021/05/20 01:59:07;;;;;;;11.70;9.35;;;8.90;99.90;;;;;;5054273;28;20615;-90
2021/05/20 02:01:34;;;;;;;9.35;8.45;;;8.90;99.90;;;;;;5053348;28;20528;-90
2021/05/20 02:03:59;;;;;;;14.00;8.13;;;8.90;99.90;;;;;;5053391;28;20258;-90
2021/05/20 02:06:25;;;;;;;9.38;8.02;;;8.90;99.90;;;;;;5036518;28;20604;-90
2021/05/20 02:08:51;;;;;;;8.45;7.68;;;8.90;99.90;;;;;;5054542;28;20678;-90
2021/05/20 02:11:16;;;;;;;8.93;7.25;;;8.80;99.90;;;;;;5062185;28;20176;-90
2021/05/20 02:13:42;;;;;;;6.72;5.95;;;8.70;99.90;;;;;;5052820;28;20183;-91
2021/05/20 02:16:08;;;;;;;9.90;6.68;;;8.60;99.90;;;;;;5074088;28;20152;-90
2021/05/20 02:18:35;;;;;;;8.48;7.78;;;8.60;99.90;;;;;;5062967;28;20196;-90
2021/05/20 02:21:01;;;;;;;13.13;7.10;;;8.60;99.90;;;;;;5056224;28;20677;-90
2021/05/20 02:23:26;;;;;;;8.40;4.45;;;8.60;99.90;;;;;;5056491;28;20163;-91
2021/05/20 02:25:52;;;;;;;4.70;4.30;;;8.50;99.90;;;;;;5056057;28;20635;-90
2021/05/20 02:28:18;;;;;;;9.10;5.13;;;8.40;99.90;;;;;;5041558;28;20210;-90
2021/05/20 02:30:43;;;;;;;7.60;6.90;;;8.20;99.90;;;;;;5076740;28;20225;-91
2021/05/20 02:33:09;;;;;;;9.73;8.75;;;8.20;99.90;;;;;;5080311;28;20152;-90
2021/05/20 02:35:35;;;;;;;11.07;7.03;;;8.20;99.90;;;;;;5065746;28;20172;-90
2021/05/20 02:38:01;;;;;;;7.32;6.63;;;8.30;99.90;;;;;;5056217;28;20175;-90
2021/05/20 02:40:26;;;;;;;6.93;6.30;;;8.30;99.90;;;;;;5057623;28;20201;-90
2021/05/20 02:42:52;;;;;;;7.45;6.78;;;8.30;99.90;;;;;;5056220;28;20639;-91
2021/05/20 02:45:21;;;;;;;8.43;7.63;;;8.30;99.90;;;;;;5057549;28;20206;-90
2021/05/20 02:47:48;;;;;;;8.55;7.40;;;8.40;99.90;;;;;;5057235;28;20191;-91
2021/05/20 02:50:15;;;;;;;8.65;7.85;;;8.40;99.90;;;;;;5057012;28;20179;-90
2021/05/20 02:52:45;;;;;;;9.10;7.32;;;8.40;99.90;;;;;;5056115;28;20168;-90
2021/05/20 02:55:13;;;;;;;11.02;9.55;;;8.40;99.90;;;;;;5039857;28;20168;-91
2021/05/20 02:57:41;;;;;;;10.52;9.43;;;8.40;99.90;;;;;;5055837;28;20270;-90
2021/05/20 03:00:09;;;;;;;13.30;10.38;;;8.40;99.90;;;;;;5036318;28;20207;-91
2021/05/20 03:02:35;;;;;;;11.73;10.43;;;8.40;99.90;;;;;;5035922;28;20172;-90
2021/05/20 03:05:00;;;;;;;15.30;11.57;;;8.50;99.90;;;;;;5052782;28;20179;-91
2021/05/20 03:07:26;;;;;;;15.85;12.20;;;8.50;99.90;;;;;;5035851;28;20208;-90
2021/05/20 03:09:52;;;;;;;16.10;11.73;;;8.50;99.90;;;;;;5037684;28;20236;-90
2021/05/20 03:12:17;;;;;;;11.43;9.48;;;8.50;99.90;;;;;;5057014;28;20175;-91
2021/05/20 03:14:43;;;;;;;10.20;9.20;;;8.60;99.90;;;;;;5055573;28;20557;-91
2021/05/20 03:17:12;;;;;;;11.98;9.50;;;8.50;99.90;;;;;;5055924;28;20179;-91
2021/05/20 03:19:41;;;;;;;10.13;8.13;;;8.50;99.90;;;;;;5055899;28;20594;-91
2021/05/20 03:22:08;;;;;;;7.93;7.22;;;8.50;99.90;;;;;;5055499;28;20180;-91
2021/05/20 03:24:34;;;;;;;11.00;8.73;;;8.40;99.90;;;;;;5056889;28;20191;-91
2021/05/20 03:27:00;;;;;;;11.18;7.95;;;8.30;99.90;;;;;;5054993;28;20210;-91
2021/05/20 03:29:25;;;;;;;7.40;6.70;;;8.30;99.90;;;;;;5055517;28;20175;-92
2021/05/20 03:31:51;;;;;;;12.27;8.30;;;8.20;99.90;;;;;;5055970;28;20569;-91
2021/05/20 03:34:17;;;;;;;9.05;8.25;;;8.20;99.90;;;;;;5055683;28;20171;-91
2021/05/20 03:36:43;;;;;;;12.02;10.00;;;8.10;99.90;;;;;;5056528;28;20172;-91
2021/05/20 03:39:08;;;;;;;12.82;10.23;;;8.00;99.90;;;;;;5038807;28;20178;-91
2021/05/20 03:41:34;;;;;;;11.75;8.82;;;8.00;99.90;;;;;;5055339;28;20584;-91
2021/05/20 03:44:00;;;;;;;11.45;10.25;;;8.00;99.90;;;;;;5054893;28;20176;-91
2021/05/20 03:46:25;;;;;;;14.43;11.30;;;7.90;99.90;;;;;;5055367;28;20648;-91
2021/05/20 03:48:51;;;;;;;15.95;12.50;;;7.90;99.90;;;;;;5066035;28;20192;-91
2021/05/20 03:51:17;;;;;;;16.15;11.75;;;7.90;99.90;;;;;;5079825;28;20151;-90
2021/05/20 03:53:42;;;;;;;16.50;12.35;;;7.90;99.90;;;;;;5062522;28;20151;-89
2021/05/20 03:56:08;;;;;;;16.15;13.13;;;8.00;99.90;;;;;;5079141;28;20155;-89
2021/05/20 03:58:34;;;;;;;20.17;13.52;;;8.10;99.90;;;;;;5079863;28;20140;-91
2021/05/20 04:00:59;;;;;;;25.08;16.08;;;8.10;99.90;;;;;;5070936;28;20179;-91
2021/05/20 04:03:29;;;;;;;22.77;15.23;;;8.20;99.90;;;;;;5054797;28;20595;-91
2021/05/20 04:05:56;;;;;;;20.98;14.73;;;8.30;99.90;;;;;;5038340;28;20171;-91
2021/05/20 04:08:22;;;;;;;29.98;15.50;;;8.30;99.90;;;;;;5055667;28;20251;-92
2021/05/20 04:10:50;;;;;;;23.17;15.48;;;8.30;99.90;;;;;;5062403;28;20266;-91
2021/05/20 04:13:38;;;;;;;26.00;17.02;;;8.30;99.90;;;;;;5068961;28;20241;-91
2021/05/20 04:16:06;;;;;;;24.55;15.05;;;8.40;99.90;;;;;;5062591;28;20635;-91
2021/05/20 04:18:32;;;;;;;22.95;15.98;;;8.50;99.90;;;;;;5055001;28;20204;-91
2021/05/20 04:20:58;;;;;;;20.95;15.02;;;8.60;99.90;;;;;;5055682;28;20194;-91
2021/05/20 04:23:25;;;;;;;18.30;13.90;;;8.60;99.90;;;;;;5038049;28;20182;-91
2021/05/20 04:25:51;;;;;;;24.23;14.63;;;8.70;99.90;;;;;;5055799;28;20235;-91
2021/05/20 04:28:17;;;;;;;20.77;15.20;;;8.80;99.90;;;;;;5054384;28;20245;-90
2021/05/20 04:30:44;;;;;;;24.52;15.95;;;8.80;99.90;;;;;;5055255;28;20258;-91
2021/05/20 04:33:10;;;;;;;21.17;14.93;;;8.80;99.90;;;;;;5055639;28;20182;-91
2021/05/20 04:35:36;;;;;;;24.10;15.85;;;8.90;99.90;;;;;;5054696;28;20521;-91
2021/05/20 04:38:04;;;;;;;24.10;17.13;;;9.00;99.90;;;;;;5054389;28;20175;-91
2021/05/20 04:40:30;;;;;;;24.20;17.15;;;9.10;99.90;;;;;;5068004;28;20175;-91
2021/05/20 04:42:56;;;;;;;23.10;16.35;;;9.20;99.90;;;;;;5074620;28;20174;-91
2021/05/20 04:45:22;;;;;;;22.20;15.95;;;9.30;99.90;;;;;;5074934;28;20167;-91
2021/05/20 04:47:48;;;;;;;24.63;16.65;;;9.40;99.90;;;;;;5059120;28;20195;-90
2021/05/20 04:50:15;;;;;;;35.15;14.52;;;9.50;99.90;;;;;;5055280;28;20179;-90
2021/05/20 04:52:42;;;;;;;11.23;10.05;;;9.70;99.90;;;;;;5053958;28;20632;-91
2021/05/20 04:55:09;;;;;;;10.65;9.55;;;9.80;99.90;;;;;;5053857;28;20167;-91
2021/05/20 04:57:35;;;;;;;12.02;10.07;;;9.80;99.90;;;;;;5060063;28;20246;-91
2021/05/20 05:00:02;;;;;;;22.48;14.70;;;9.90;99.90;;;;;;5073261;28;20189;-91
2021/05/20 05:02:27;;;;;;;16.58;14.38;;;10.10;99.90;;;;;;5073441;28;20182;-91
2021/05/20 05:04:54;;;;;;;16.40;13.48;;;10.30;99.90;;;;;;5055539;28;20183;-92
2021/05/20 05:07:20;;;;;;;19.90;14.07;;;10.60;99.90;;;;;;5037152;28;20195;-91
2021/05/20 05:09:45;;;;;;;16.92;14.35;;;11.00;99.90;;;;;;5055019;28;20233;-91
2021/05/20 05:12:11;;;;;;;14.65;13.23;;;11.30;99.90;;;;;;5037380;28;20628;-91
2021/05/20 05:14:36;;;;;;;16.67;12.20;;;11.80;99.90;;;;;;5053564;28;20535;-91
2021/05/20 05:17:02;;;;;;;13.30;11.50;;;12.30;99.90;;;;;;5053443;28;20213;-92
2021/05/20 05:19:28;;;;;;;11.60;10.57;;;12.70;99.90;;;;;;5054674;28;20176;-91
2021/05/20 05:21:54;;;;;;;10.32;9.35;;;13.10;99.90;;;;;;5053542;28;20222;-91
2021/05/20 05:24:20;;;;;;;10.27;9.27;;;13.70;99.90;;;;;;5036862;28;20171;-92
2021/05/20 05:26:45;;;;;;;12.90;9.95;;;14.10;99.90;;;;;;5053409;28;20185;-91
2021/05/20 05:29:11;;;;;;;12.45;9.65;;;14.70;99.90;;;;;;5039110;28;20186;-92
2021/05/20 05:31:37;;;;;;;8.85;8.10;;;15.30;99.90;;;;;;5053501;28;20175;-92
2021/05/20 05:34:04;;;;;;;9.25;8.35;;;15.70;99.90;;;;;;5036773;28;20172;-91
2021/05/20 05:36:30;;;;;;;9.07;8.25;;;15.70;99.90;;;;;;5053172;28;20172;-91
2021/05/20 05:38:56;;;;;;;9.70;8.93;;;15.60;99.90;;;;;;5036459;28;20179;-92
2021/05/20 05:41:21;;;;;;;8.10;7.40;;;15.60;99.90;;;;;;5053109;28;20174;-91
2021/05/20 05:43:47;;;;;;;10.55;9.48;;;15.60;99.90;;;;;;5053345;28;20579;-92
2021/05/20 05:46:13;;;;;;;11.75;9.18;;;15.50;99.90;;;;;;5054524;28;20163;-91
2021/05/20 05:48:38;;;;;;;9.95;9.00;;;15.50;99.90;;;;;;5053182;28;20234;-92
2021/05/20 05:51:08;;;;;;;10.93;9.45;;;15.40;99.90;;;;;;5053328;28;20524;-92
2021/05/20 05:53:35;;;;;;;16.33;10.38;;;15.40;99.90;;;;;;5055720;28;20537;-91
2021/05/20 05:56:00;;;;;;;12.38;11.00;;;15.20;99.90;;;;;;5040654;28;20175;-92
2021/05/20 05:58:26;;;;;;;11.95;10.68;;;14.80;99.90;;;;;;5056728;28;20202;-91
2021/05/20 06:00:52;;;;;;;15.73;11.32;;;14.40;99.90;;;;;;5056986;28;20171;-92
2021/05/20 06:03:18;;;;;;;14.52;11.35;;;14.30;99.90;;;;;;5056723;28;20274;-91
2021/05/20 06:05:47;;;;;;;25.10;12.55;;;13.90;99.90;;;;;;5056800;28;20175;-92
2021/05/20 06:08:13;;;;;;;17.88;11.75;;;13.90;99.90;;;;;;5056667;28;20191;-92
2021/05/20 06:10:39;;;;;;;12.48;11.23;;;14.20;99.90;;;;;;5056686;28;20194;-89
2021/05/20 06:13:07;;;;;;;11.82;10.65;;;14.50;99.90;;;;;;5056932;28;20164;-91
2021/05/20 06:15:33;;;;;;;13.82;10.93;;;14.70;99.90;;;;;;5057778;28;20217;-90
2021/05/20 06:17:59;;;;;;;13.25;10.90;;;15.50;99.90;;;;;;5057450;28;20183;-91
2021/05/20 06:20:24;;;;;;;16.48;9.85;;;15.80;99.90;;;;;;5056194;28;20171;-91
2021/05/20 06:22:50;;;;;;;11.57;10.18;;;15.70;99.90;;;;;;5056471;28;20175;-90
2021/05/20 06:25:16;;;;;;;13.50;10.68;;;16.00;99.90;;;;;;5057670;28;20168;-90
2021/05/20 06:27:42;;;;;;;11.05;9.75;;;16.80;99.90;;;;;;5056281;28;20252;-91
2021/05/20 06:30:08;;;;;;;11.15;8.77;;;17.70;99.90;;;;;;5056539;28;20612;-90
2021/05/20 06:32:36;;;;;;;9.90;9.00;;;19.40;99.90;;;;;;5057512;28;20167;-91
2021/05/20 06:35:02;;;;;;;12.70;8.32;;;20.40;99.90;;;;;;5057539;28;20170;-91
2021/05/20 06:37:27;;;;;;;9.52;8.60;;;21.00;99.90;;;;;;5057331;28;20174;-91
2021/05/20 06:39:53;;;;;;;9.07;8.15;;;20.50;99.90;;;;;;5039729;28;20171;-91
2021/05/20 06:42:19;;;;;;;18.50;8.13;;;20.30;99.90;;;;;;5057327;28;20172;-91
2021/05/20 06:44:44;;;;;;;12.95;8.65;;;20.10;99.90;;;;;;5056039;28;20171;-90
2021/05/20 06:47:10;;;;;;;9.30;8.38;;;19.70;99.90;;;;;;5056411;28;20199;-90
2021/05/20 06:49:36;;;;;;;10.57;9.57;;;19.20;99.90;;;;;;5039249;28;20547;-90
2021/05/20 06:52:01;;;;;;;13.05;8.55;;;18.70;99.90;;;;;;5056854;28;20213;-91
2021/05/20 06:54:27;;;;;;;9.38;8.27;;;19.60;99.90;;;;;;5055982;28;20259;-90
2021/05/20 06:56:57;;;;;;;9.40;7.78;;;21.80;99.90;;;;;;5057030;28;20188;-90
2021/05/20 07:02:07;;;;;;;13.73;8.68;;;23.40;99.90;;;;;;5057056;28;20249;-90
2021/05/20 07:04:33;;;;;;;13.02;9.32;;;23.20;99.90;;;;;;5055496;28;20179;-91
2021/05/20 07:07:03;;;;;;;9.38;7.97;;;22.30;99.90;;;;;;5036108;28;20179;-91
2021/05/20 07:09:32;;;;;;;14.50;9.23;;;22.80;99.90;;;;;;5069104;28;20180;-89
2021/05/20 07:11:59;;;;;;;15.82;10.02;;;23.40;99.90;;;;;;5057603;28;20159;-89
2021/05/20 07:14:25;;;;;;;10.75;8.80;;;23.40;99.90;;;;;;5071340;28;20621;-92
2021/05/20 07:16:52;;;;;;;10.10;8.27;;;24.00;99.90;;;;;;5037373;28;20520;-91
2021/05/20 07:19:19;;;;;;;12.57;9.20;;;25.10;99.90;;;;;;5073777;28;20257;-91
2021/05/20 07:21:44;;;;;;;11.02;8.35;;;26.70;99.90;;;;;;5076146;28;20257;-92
2021/05/20 07:24:10;;;;;;;9.38;8.48;;;26.90;99.90;;;;;;5075579;28;20221;-91
2021/05/20 07:26:36;;;;;;;13.65;8.48;;;27.90;99.90;;;;;;5075626;28;20179;-91
2021/05/20 07:29:04;;;;;;;14.90;8.50;;;29.20;99.90;;;;;;5074127;28;20199;-90
2021/05/20 07:31:30;;;;;;;10.63;8.63;;;30.00;99.90;;;;;;5070229;28;20182;-91
2021/05/20 07:33:55;;;;;;;10.52;8.77;;;29.80;99.30;;;;;;5055946;28;20175;-91
2021/05/20 07:36:22;;;;;;;11.73;10.43;;;28.70;99.80;;;;;;5056001;28;20672;-91
2021/05/20 07:38:48;;;;;;;16.15;10.57;;;26.30;99.90;;;;;;5056309;28;20225;-91
2021/05/20 07:41:15;;;;;;;17.70;12.82;;;24.30;99.90;;;;;;5055849;28;20609;-90
2021/05/20 07:43:41;;;;;;;14.57;12.23;;;23.30;99.90;;;;;;5040201;28;20205;-90
2021/05/20 07:46:07;;;;;;;20.02;14.07;;;23.10;99.90;;;;;;5056277;28;20175;-89
2021/05/20 07:48:33;;;;;;;19.92;15.05;;;23.20;99.90;;;;;;5056563;28;20251;-90
2021/05/20 07:51:00;;;;;;;16.98;14.68;;;23.10;99.90;;;;;;5055091;28;20182;-90
2021/05/20 07:53:26;;;;;;;19.90;14.02;;;23.60;99.90;;;;;;5055291;28;20221;-90
2021/05/20 07:55:52;;;;;;;19.70;14.20;;;23.80;99.90;;;;;;5055323;28;20175;-90
2021/05/20 07:58:18;;;;;;;18.48;14.35;;;25.20;99.90;;;;;;5055280;28;20183;-89
2021/05/20 08:00:44;;;;;;;17.58;13.43;;;26.60;99.90;;;;;;5054666;28;20548;-90
2021/05/20 08:03:32;;;;;;;15.68;14.02;;;26.50;99.90;;;;;;5055692;28;20194;-90
2021/05/20 08:06:16;;;;;;;18.98;15.07;;;27.30;99.90;;;;;;5054887;28;20692;-89
2021/05/20 08:08:53;;;;;;;19.42;14.77;;;28.50;99.90;;;;;;5055096;28;20305;-89
2021/05/20 08:11:19;;;;;;;23.60;15.35;;;28.00;99.90;;;;;;5056544;28;20589;-90
2021/05/20 08:13:45;;;;;;;23.23;15.98;;;28.00;99.90;;;;;;5056297;28;20164;-90
2021/05/20 08:16:11;;;;;;;28.55;17.25;;;28.00;99.90;;;;;;5034026;28;20215;-90
2021/05/20 08:18:37;;;;;;;24.27;17.70;;;28.00;99.90;;;;;;5036314;28;20643;-92
2021/05/20 08:21:04;;;;;;;24.27;17.77;;;27.00;99.90;;;;;;5051567;28;20627;-90
2021/05/20 08:23:32;;;;;;;30.52;18.80;;;25.90;99.90;;;;;;5035369;28;20175;-91
2021/05/20 08:25:58;;;;;;;21.75;15.27;;;25.60;99.90;;;;;;5054780;28;20254;-90
2021/05/20 08:28:23;;;;;;;16.08;12.07;;;26.30;99.90;;;;;;5055029;28;20229;-90
2021/05/20 08:30:49;;;;;;;15.60;12.73;;;26.30;99.90;;;;;;5054695;28;20171;-90
2021/05/20 08:33:15;;;;;;;14.02;11.27;;;27.10;99.90;;;;;;5054421;28;20171;-91
2021/05/20 08:35:40;;;;;;;12.88;10.32;;;28.10;99.90;;;;;;5055501;28;20178;-91
2021/05/20 08:38:06;;;;;;;13.15;10.05;;;28.90;99.70;;;;;;5038133;28;20317;-89
2021/05/20 08:40:33;;;;;;;12.75;9.20;;;29.50;97.10;;;;;;5054112;28;20601;-89
2021/05/20 08:42:59;;;;;;;11.73;8.95;;;29.60;98.80;;;;;;5054024;28;20550;-90
2021/05/20 08:45:27;;;;;;;10.23;8.48;;;29.60;97.50;;;;;;5053882;28;20549;-90
2021/05/20 08:47:54;;;;;;;15.25;8.23;;;28.80;97.60;;;;;;5055270;28;20222;-88
2021/05/20 08:50:22;;;;;;;14.50;9.32;;;28.10;98.40;;;;;;5055345;28;20214;-90
2021/05/20 08:52:49;;;;;;;10.73;7.90;;;27.80;97.80;;;;;;5054118;28;20168;-88
2021/05/20 08:55:20;;;;;;;9.52;7.53;;;28.00;98.50;;;;;;5054040;28;20167;-89
2021/05/20 08:57:46;;;;;;;10.20;7.13;;;28.20;98.80;;;;;;5054878;28;20194;-89
2021/05/20 09:00:20;;;;;;;11.68;7.43;;;29.20;97.70;;;;;;5053950;28;20262;-88
2021/05/20 09:02:46;;;;;;;8.57;6.43;;;28.90;97.50;;;;;;5053984;28;20182;-89
2021/05/20 09:05:17;;;;;;;7.68;5.63;;;29.10;97.00;;;;;;5053497;28;20174;-89
2021/05/20 09:07:51;;;;;;;10.85;5.85;;;30.20;96.20;;;;;;5053637;28;20233;-90
2021/05/20 09:10:31;;;;;;;9.63;6.90;;;30.70;95.60;;;;;;5054965;28;20254;-89
2021/05/20 09:13:05;;;;;;;9.80;5.13;;;30.70;94.60;;;;;;5053396;28;20194;-88
2021/05/20 09:15:32;;;;;;;6.60;4.97;;;30.30;95.60;;;;;;5060777;28;20167;-89
2021/05/20 09:18:24;;;;;;;7.03;5.25;;;30.80;95.20;;;;;;5067097;28;20171;-89
2021/05/20 09:20:49;;;;;;;7.63;5.32;;;29.10;96.50;;;;;;5094916;28;20171;-88
2021/05/20 09:23:23;;;;;;;9.82;7.32;;;29.30;97.40;;;;;;5054545;28;20647;-89
2021/05/20 09:25:52;;;;;;;18.35;13.15;;;29.30;96.40;;;;;;5016145;28;20184;-88
2021/05/20 09:28:31;;;;;;;22.48;16.83;;;28.80;97.90;;;;;;5032324;28;20216;-89
2021/05/20 09:30:57;;;;;;;30.83;21.80;;;27.50;97.70;;;;;;5015563;28;20197;-89
2021/05/20 09:33:22;;;;;;;33.35;24.75;;;26.70;99.00;;;;;;5015706;28;20448;-90
2021/05/20 09:35:49;;;;;;;29.50;22.92;;;26.10;98.50;;;;;;5024667;28;20192;-89
2021/05/20 09:38:18;;;;;;;33.88;24.95;;;25.20;99.90;;;;;;5063103;28;20184;-89
2021/05/20 09:40:55;;;;;;;32.97;24.63;;;24.20;99.90;;;;;;5036215;28;20192;-88
2021/05/20 09:43:35;;;;;;;30.65;21.55;;;23.80;99.90;;;;;;5032216;28;20214;-89
2021/05/20 09:46:02;;;;;;;42.45;21.88;;;23.20;99.90;;;;;;5031041;28;20184;-87
2021/05/20 09:48:37;;;;;;;37.50;21.75;;;23.00;99.90;;;;;;5014770;28;20292;-89
2021/05/20 09:51:04;;;;;;;33.47;21.73;;;22.30;99.90;;;;;;5015274;28;20218;-87
2021/05/20 09:53:30;;;;;;;27.40;21.23;;;21.40;99.90;;;;;;5041102;28;20176;-89
2021/05/20 09:56:01;;;;;;;33.60;22.20;;;21.70;99.90;;;;;;5035313;28;20209;-88
2021/05/20 09:58:32;;;;;;;37.55;23.25;;;21.20;99.90;;;;;;5065015;28;20218;-89
2021/05/20 10:01:02;;;;;;;41.03;26.17;;;21.10;99.90;;;;;;5053639;28;20186;-88
2021/05/20 10:03:34;;;;;;;35.30;24.63;;;21.60;99.90;;;;;;5054474;28;20221;-87
2021/05/20 10:06:00;;;;;;;32.78;23.08;;;22.20;99.90;;;;;;5052266;28;20182;-88
2021/05/20 10:08:29;;;;;;;20.45;16.55;;;22.70;99.90;;;;;;5053026;28;20215;-88
2021/05/20 10:11:01;;;;;;;15.07;11.82;;;22.80;99.90;;;;;;5036549;28;20175;-89
2021/05/20 10:13:28;;;;;;;19.55;10.30;;;22.30;99.90;;;;;;5053520;28;20612;-87
2021/05/20 10:15:56;;;;;;;9.32;8.43;;;22.20;99.90;;;;;;5052417;28;20191;-87
2021/05/20 10:18:24;;;;;;;8.25;7.40;;;22.00;99.90;;;;;;5053368;28;20182;-87
2021/05/20 10:20:55;;;;;;;6.97;5.50;;;22.20;99.90;;;;;;5052220;28;20171;-88
2021/05/20 10:23:22;;;;;;;7.20;6.45;;;22.20;99.90;;;;;;5053316;28;20258;-87
2021/05/20 10:25:51;;;;;;;10.45;6.80;;;22.20;99.90;;;;;;5058566;28;20221;-88
2021/05/20 10:28:19;;;;;;;7.68;7.07;;;22.10;99.90;;;;;;5052273;28;20207;-88
2021/05/20 10:30:47;;;;;;;9.05;8.25;;;22.00;99.90;;;;;;5052124;28;20171;-87
2021/05/20 10:33:15;;;;;;;8.77;8.07;;;21.50;99.90;;;;;;5053513;28;20233;-86
2021/05/20 10:35:53;;;;;;;9.18;8.30;;;21.40;99.90;;;;;;5053041;28;20633;-87
2021/05/20 10:38:28;;;;;;;6.97;6.35;;;21.40;99.90;;;;;;5050749;28;20282;-90
2021/05/20 10:41:07;;;;;;;8.60;6.47;;;21.20;99.90;;;;;;5057099;28;20166;-87
2021/05/20 10:43:33;;;;;;;8.52;6.13;;;21.20;99.90;;;;;;5056912;28;20162;-88
2021/05/20 10:46:12;;;;;;;5.25;4.85;;;21.40;99.90;;;;;;5055807;28;20629;-88
2021/05/20 10:48:47;;;;;;;5.00;4.53;;;21.60;99.90;;;;;;5035253;28;20234;-87
2021/05/20 10:51:16;;;;;;;11.48;4.88;;;22.10;99.90;;;;;;5036745;28;20237;-87
2021/05/20 10:53:51;;;;;;;6.00;5.47;;;22.00;99.90;;;;;;5036462;28;20163;-88
2021/05/20 10:56:23;;;;;;;5.35;4.85;;;22.10;99.90;;;;;;5036298;28;20221;-88
2021/05/20 10:58:50;;;;;;;5.28;4.75;;;22.30;99.90;;;;;;5055347;28;20177;-88
2021/05/20 11:01:25;;;;;;;4.75;4.35;;;22.10;99.90;;;;;;5038530;28;20225;-88
2021/05/20 11:04:07;;;;;;;4.25;3.83;;;21.90;99.90;;;;;;5055282;28;20175;-88
2021/05/20 11:06:35;;;;;;;4.43;4.03;;;21.70;99.90;;;;;;5055203;28;20183;-89
2021/05/20 11:09:02;;;;;;;5.82;3.85;;;21.70;99.90;;;;;;5054884;28;20218;-88
2021/05/20 11:11:30;;;;;;;4.07;3.65;;;22.00;99.90;;;;;;5056414;28;20246;-88
2021/05/20 11:14:16;;;;;;;7.22;3.78;;;22.20;99.90;;;;;;5056096;28;20262;-86
2021/05/20 11:16:46;;;;;;;7.78;4.40;;;22.10;99.90;;;;;;5055494;28;20199;-87
2021/05/20 11:19:21;;;;;;;4.93;3.75;;;22.00;99.90;;;;;;5054570;28;20179;-88
2021/05/20 11:22:12;;;;;;;5.05;4.22;;;22.10;99.90;;;;;;5055440;28;20616;-88
2021/05/20 11:24:42;;;;;;;4.05;3.47;;;22.40;99.90;;;;;;5052535;28;20191;-88
2021/05/20 11:27:09;;;;;;;3.80;3.47;;;22.00;99.90;;;;;;5055821;28;20647;-85
2021/05/20 11:29:39;;;;;;;4.43;3.45;;;21.70;99.90;;;;;;5054841;28;20187;-86
2021/05/20 11:32:24;;;;;;;4.68;2.80;;;21.70;99.90;;;;;;5054609;28;20238;-89
2021/05/20 11:37:24;;;;;;;3.30;3.00;;;21.20;99.90;;;;;;5055872;28;20499;-88
2021/05/20 11:39:50;;;;;;;4.35;2.78;;;21.40;99.90;;;;;;5054491;28;20616;-88
2021/05/20 11:42:31;;;;;;;4.53;3.55;;;21.00;99.90;;;;;;5054822;28;20267;-87
2021/05/20 11:44:58;;;;;;;3.38;3.08;;;21.00;99.90;;;;;;5038340;28;20171;-90
2021/05/20 11:47:24;;;;;;;8.75;3.25;;;21.20;99.90;;;;;;5054622;28;20203;-89
2021/05/20 11:49:50;;;;;;;3.50;3.20;;;20.60;99.90;;;;;;5053374;28;20516;-88
2021/05/20 11:52:18;;;;;;;3.25;2.95;;;20.20;99.90;;;;;;5054373;28;20182;-88
2021/05/20 11:54:46;;;;;;;7.35;3.00;;;19.90;99.90;;;;;;5037983;28;20171;-89
2021/05/20 11:57:13;;;;;;;3.63;3.33;;;19.90;99.90;;;;;;5034362;28;20184;-88
2021/05/20 11:59:47;;;;;;;4.65;3.35;;;19.90;99.90;;;;;;5040768;28;20225;-88
2021/05/20 12:02:28;;;;;;;3.92;3.45;;;19.90;99.90;;;;;;5058433;28;20243;-88
2021/05/20 12:05:05;;;;;;;4.15;3.85;;;19.80;99.90;;;;;;5071880;28;20163;-87
2021/05/20 12:07:32;;;;;;;6.38;3.95;;;19.60;99.90;;;;;;5076741;28;20182;-88
2021/05/20 12:10:17;;;;;;;6.35;3.92;;;19.90;99.90;;;;;;5060666;28;20233;-86
2021/05/20 12:12:47;;;;;;;4.28;3.78;;;19.90;99.90;;;;;;5054886;28;20159;-90
2021/05/20 12:15:16;;;;;;;6.85;4.18;;;19.70;99.90;;;;;;5054924;28;20171;-86
2021/05/20 12:17:42;;;;;;;4.07;3.72;;;19.60;99.90;;;;;;5053535;28;20172;-87
2021/05/20 12:20:09;;;;;;;5.95;3.20;;;19.90;99.90;;;;;;5058565;28;20172;-89
2021/05/20 12:22:36;;;;;;;5.22;3.63;;;19.80;99.90;;;;;;5068529;28;20176;-88
2021/05/20 12:25:09;;;;;;;8.20;3.95;;;19.70;99.90;;;;;;5054622;28;20175;-88
2021/05/20 12:27:43;;;;;;;7.70;4.20;;;19.60;99.90;;;;;;5053951;28;20195;-88
2021/05/20 12:30:25;;;;;;;3.92;3.53;;;19.40;99.90;;;;;;5054373;28;20639;-89
2021/05/20 12:33:05;;;;;;;5.78;3.58;;;19.30;99.90;;;;;;5053557;28;20167;-87
2021/05/20 12:35:38;;;;;;;7.15;3.90;;;19.00;99.90;;;;;;5053384;28;20178;-87
2021/05/20 12:38:21;;;;;;;7.93;3.72;;;19.10;99.90;;;;;;5053278;28;20211;-88
2021/05/20 12:41:00;;;;;;;3.13;2.83;;;18.90;99.90;;;;;;5054042;28;20167;-88
2021/05/20 12:43:34;;;;;;;8.40;3.20;;;19.00;99.90;;;;;;5054523;28;20191;-88
2021/05/20 12:46:06;;;;;;;7.28;3.05;;;18.90;99.90;;;;;;5054369;28;20212;-85
2021/05/20 12:48:55;;;;;;;7.75;3.10;;;18.90;99.90;;;;;;5053368;28;20199;-88
2021/05/20 12:51:23;;;;;;;7.75;2.70;;;18.90;99.90;;;;;;5054469;28;20183;-88